createdAt,value
2022-10-14T00:00:30.315Z,87.93
2022-10-14T00:01:30.368Z,87.89
2022-10-14T00:02:30.247Z,88.14
2022-10-14T00:03:30.234Z,87.93
2022-10-14T00:04:30.326Z,87.79
2022-10-14T00:05:30.236Z,87.52
2022-10-14T00:06:30.194Z,87.88
2022-10-14T00:07:30.239Z,87.61
2022-10-14T00:08:30.169Z,87.62
2022-10-14T00:09:30.247Z,87.62
2022-10-14T00:10:30.143Z,87.83
2022-10-14T00:11:30.127Z,87.95
2022-10-14T00:12:30.140Z,88.09
2022-10-14T00:13:30.123Z,88.25
2022-10-14T00:14:30.122Z,88.42
2022-10-14T00:15:30.082Z,88.44
2022-10-14T00:16:30.076Z,88.48
2022-10-14T00:17:30.106Z,88.29
2022-10-14T00:18:30.069Z,87.94
2022-10-14T00:19:30.050Z,87.87
2022-10-14T00:20:30.015Z,87.89
2022-10-14T00:21:30.024Z,87.54
2022-10-14T00:22:30.000Z,87.50
2022-10-14T00:23:30.013Z,87.41
2022-10-14T00:24:30.031Z,87.39
2022-10-14T00:25:29.955Z,87.62
2022-10-14T00:26:29.939Z,87.32
2022-10-14T00:27:29.923Z,87.30
2022-10-14T00:28:29.949Z,87.37
2022-10-14T00:29:29.937Z,87.32
2022-10-14T00:30:29.860Z,87.55
2022-10-14T00:31:29.901Z,87.57
2022-10-14T00:32:29.839Z,87.52
2022-10-14T00:33:29.860Z,87.46
2022-10-14T00:34:30.712Z,87.63
2022-10-14T00:35:29.858Z,87.48
2022-10-14T00:36:29.785Z,87.42
2022-10-14T00:37:29.791Z,87.46
2022-10-14T00:38:29.859Z,87.52
2022-10-14T00:39:29.783Z,87.52
2022-10-14T00:40:29.749Z,87.52
2022-10-14T00:41:29.715Z,87.39
2022-10-14T00:42:29.721Z,87.48
2022-10-14T00:43:29.731Z,87.70
2022-10-14T00:44:29.724Z,87.76
2022-10-14T00:45:29.675Z,87.83
2022-10-14T00:46:30.734Z,87.89
2022-10-14T00:47:29.635Z,87.77
2022-10-14T00:48:29.611Z,87.59
2022-10-14T00:49:29.611Z,87.56
2022-10-14T00:50:29.598Z,87.60
2022-10-14T00:51:29.642Z,87.56
2022-10-14T00:52:29.610Z,87.56
2022-10-14T00:53:29.554Z,87.49
2022-10-14T00:54:29.553Z,87.37
2022-10-14T00:55:29.554Z,87.36
2022-10-14T00:56:29.520Z,87.48
2022-10-14T00:57:29.495Z,87.56
2022-10-14T00:58:29.558Z,87.55
2022-10-14T00:59:29.471Z,87.46
2022-10-14T01:00:29.524Z,87.50
2022-10-14T01:01:29.442Z,87.53
2022-10-14T01:02:29.426Z,87.60
2022-10-14T01:03:29.441Z,87.53
2022-10-14T01:04:29.402Z,87.60
2022-10-14T01:05:29.459Z,87.53
2022-10-14T01:06:29.394Z,87.59
2022-10-14T01:07:29.360Z,87.71
2022-10-14T01:08:29.407Z,87.69
2022-10-14T01:09:29.361Z,87.62
2022-10-14T01:10:29.362Z,87.63
2022-10-14T01:11:29.297Z,87.65
2022-10-14T01:12:30.084Z,87.34
2022-10-14T01:13:29.287Z,87.31
2022-10-14T01:14:29.267Z,87.23
2022-10-14T01:15:29.271Z,87.45
2022-10-14T01:16:29.334Z,87.30
2022-10-14T01:17:29.261Z,87.40
2022-10-14T01:18:29.234Z,87.17
2022-10-14T01:19:29.201Z,87.08
2022-10-14T01:20:29.196Z,87.19
2022-10-14T01:21:29.173Z,87.19
2022-10-14T01:22:29.415Z,87.39
2022-10-14T01:23:29.174Z,87.28
2022-10-14T01:24:29.133Z,87.28
2022-10-14T01:25:29.131Z,87.17
2022-10-14T01:26:29.112Z,87.09
2022-10-14T01:27:29.101Z,87.06
2022-10-14T01:28:29.118Z,87.01
2022-10-14T01:29:29.087Z,87.02
2022-10-14T01:30:29.074Z,87.03
2022-10-14T01:31:29.046Z,87.13
2022-10-14T01:32:29.045Z,87.15
2022-10-14T01:33:29.023Z,87.29
2022-10-14T01:34:29.057Z,87.22
2022-10-14T01:35:29.059Z,87.07
2022-10-14T01:36:28.992Z,86.83
2022-10-14T01:37:28.988Z,86.86
2022-10-14T01:38:28.956Z,86.77
2022-10-14T01:39:28.944Z,86.90
2022-10-14T01:40:28.999Z,86.99
2022-10-14T01:41:28.951Z,87.42
2022-10-14T01:42:28.905Z,87.20
2022-10-14T01:43:28.886Z,87.23
2022-10-14T01:44:28.896Z,87.55
2022-10-14T01:45:28.877Z,87.47
2022-10-14T01:46:28.893Z,87.42
2022-10-14T01:47:28.908Z,87.49
2022-10-14T01:48:28.841Z,87.23
2022-10-14T01:49:28.848Z,87.40
2022-10-14T01:50:28.789Z,87.17
2022-10-14T01:51:28.783Z,87.29
2022-10-14T01:52:28.782Z,87.49
2022-10-14T01:53:28.755Z,87.49
2022-10-14T01:54:28.769Z,87.57
2022-10-14T01:55:28.728Z,87.59
2022-10-14T01:56:28.713Z,87.52
2022-10-14T01:57:28.718Z,87.62
2022-10-14T01:58:28.735Z,87.86
2022-10-14T01:59:28.690Z,88.06
2022-10-14T02:00:28.661Z,88.30
2022-10-14T02:01:28.700Z,88.01
2022-10-14T02:02:28.654Z,87.87
2022-10-14T02:03:28.631Z,87.85
2022-10-14T02:04:28.628Z,88.09
2022-10-14T02:05:28.612Z,88.10
2022-10-14T02:06:28.590Z,88.31
2022-10-14T02:07:28.598Z,88.40
2022-10-14T02:08:28.559Z,87.67
2022-10-14T02:09:28.562Z,87.76
2022-10-14T02:10:28.528Z,87.96
2022-10-14T02:11:28.527Z,88.08
2022-10-14T02:12:28.668Z,88.04
2022-10-14T02:13:28.581Z,88.01
2022-10-14T02:14:28.571Z,88.11
2022-10-14T02:15:28.537Z,88.04
2022-10-14T02:16:28.461Z,87.93
2022-10-14T02:17:28.455Z,87.90
2022-10-14T02:18:28.510Z,87.94
2022-10-14T02:19:28.429Z,88.15
2022-10-14T02:20:28.397Z,88.20
2022-10-14T02:21:28.406Z,88.30
2022-10-14T02:22:28.392Z,88.42
2022-10-14T02:23:28.441Z,88.46
2022-10-14T02:24:28.394Z,88.39
2022-10-14T02:25:28.400Z,88.21
2022-10-14T02:26:28.411Z,88.11
2022-10-14T02:27:28.319Z,87.99
2022-10-14T02:28:28.383Z,87.80
2022-10-14T02:29:28.335Z,88.16
2022-10-14T02:30:28.280Z,88.12
2022-10-14T02:31:28.264Z,87.84
2022-10-14T02:32:28.335Z,88.19
2022-10-14T02:33:28.329Z,88.36
2022-10-14T02:34:28.297Z,88.36
2022-10-14T02:35:28.196Z,88.40
2022-10-14T02:36:28.236Z,88.36
2022-10-14T02:37:28.235Z,88.17
2022-10-14T02:38:28.196Z,87.87
2022-10-14T02:39:28.243Z,87.85
2022-10-14T02:40:28.148Z,87.67
2022-10-14T02:41:28.212Z,87.63
2022-10-14T02:42:28.342Z,87.99
2022-10-14T02:43:28.120Z,87.96
2022-10-14T02:44:28.146Z,87.76
2022-10-14T02:45:28.107Z,87.95
2022-10-14T02:46:28.110Z,88.15
2022-10-14T02:47:28.052Z,88.25
2022-10-14T02:48:28.064Z,88.01
2022-10-14T02:49:28.066Z,87.66
2022-10-14T02:50:28.071Z,87.84
2022-10-14T02:51:28.015Z,87.76
2022-10-14T02:52:28.021Z,87.84
2022-10-14T02:53:28.041Z,87.87
2022-10-14T02:54:28.001Z,87.64
2022-10-14T02:55:28.021Z,87.61
2022-10-14T02:56:27.948Z,87.70
2022-10-14T02:57:27.952Z,87.73
2022-10-14T02:58:27.961Z,87.70
2022-10-14T02:59:27.932Z,87.74
2022-10-14T03:00:27.939Z,87.79
2022-10-14T03:01:27.995Z,87.80
2022-10-14T03:02:27.886Z,87.79
2022-10-14T03:03:27.863Z,87.63
2022-10-14T03:04:27.879Z,87.71
2022-10-14T03:05:27.865Z,87.69
2022-10-14T03:06:27.872Z,87.94
2022-10-14T03:07:27.845Z,88.03
2022-10-14T03:08:27.849Z,88.16
2022-10-14T03:09:34.432Z,87.79
2022-10-14T03:10:29.502Z,87.74
2022-10-14T03:11:27.735Z,87.93
2022-10-14T03:12:27.721Z,87.82
2022-10-14T03:13:27.732Z,87.73
2022-10-14T03:14:27.733Z,87.66
2022-10-14T03:15:27.686Z,87.69
2022-10-14T03:16:27.741Z,87.71
2022-10-14T03:17:27.685Z,87.58
2022-10-14T03:18:27.649Z,87.63
2022-10-14T03:19:27.635Z,87.82
2022-10-14T03:20:27.622Z,87.70
2022-10-14T03:21:27.621Z,87.66
2022-10-14T03:22:27.619Z,87.73
2022-10-14T03:23:27.584Z,87.79
2022-10-14T03:24:27.585Z,87.93
2022-10-14T03:25:27.559Z,87.98
2022-10-14T03:26:27.537Z,87.94
2022-10-14T03:27:27.541Z,87.78
2022-10-14T03:28:27.547Z,87.83
2022-10-14T03:29:27.560Z,87.88
2022-10-14T03:30:27.499Z,87.91
2022-10-14T03:31:27.491Z,87.91
2022-10-14T03:32:27.462Z,87.95
2022-10-14T03:33:29.837Z,87.87
2022-10-14T03:34:27.434Z,87.70
2022-10-14T03:35:27.418Z,87.56
2022-10-14T03:36:27.426Z,87.54
2022-10-14T03:37:27.403Z,87.63
2022-10-14T03:38:27.378Z,87.67
2022-10-14T03:39:27.397Z,87.72
2022-10-14T03:40:27.358Z,87.75
2022-10-14T03:41:27.367Z,87.80
2022-10-14T03:42:27.356Z,87.91
2022-10-14T03:43:27.312Z,87.83
2022-10-14T03:44:27.328Z,87.90
2022-10-14T03:45:27.296Z,87.99
2022-10-14T03:46:27.290Z,87.96
2022-10-14T03:47:27.256Z,87.74
2022-10-14T03:48:27.330Z,87.77
2022-10-14T03:49:27.229Z,87.85
2022-10-14T03:50:27.286Z,87.87
2022-10-14T03:51:27.230Z,87.77
2022-10-14T03:52:27.246Z,87.83
2022-10-14T03:53:27.174Z,87.91
2022-10-14T03:54:27.172Z,87.72
2022-10-14T03:55:27.209Z,87.63
2022-10-14T03:56:27.140Z,87.58
2022-10-14T03:57:27.126Z,87.62
2022-10-14T03:58:27.142Z,87.73
2022-10-14T03:59:27.106Z,87.80
2022-10-14T04:00:27.108Z,87.84
2022-10-14T04:01:27.147Z,87.82
2022-10-14T04:02:27.057Z,87.74
2022-10-14T04:03:27.073Z,87.59
2022-10-14T04:04:27.035Z,87.63
2022-10-14T04:05:27.022Z,87.70
2022-10-14T04:06:27.042Z,87.49
2022-10-14T04:07:26.986Z,87.51
2022-10-14T04:08:27.005Z,87.51
2022-10-14T04:09:27.016Z,87.49
2022-10-14T04:10:27.002Z,87.44
2022-10-14T04:11:26.942Z,87.35
2022-10-14T04:12:26.923Z,87.33
2022-10-14T04:13:26.907Z,87.34
2022-10-14T04:14:26.914Z,87.32
2022-10-14T04:15:26.883Z,87.39
2022-10-14T04:16:26.884Z,87.47
2022-10-14T04:17:26.864Z,87.40
2022-10-14T04:18:26.845Z,87.42
2022-10-14T04:19:26.850Z,87.46
2022-10-14T04:20:26.823Z,87.54
2022-10-14T04:21:26.812Z,87.51
2022-10-14T04:22:26.820Z,87.45
2022-10-14T04:23:26.800Z,87.41
2022-10-14T04:24:26.799Z,87.47
2022-10-14T04:25:26.772Z,87.51
2022-10-14T04:26:26.774Z,87.59
2022-10-14T04:27:26.760Z,87.47
2022-10-14T04:28:26.832Z,87.48
2022-10-14T04:29:26.763Z,87.53
2022-10-14T04:30:26.741Z,87.42
2022-10-14T04:31:26.668Z,87.49
2022-10-14T04:32:26.670Z,87.55
2022-10-14T04:33:26.666Z,87.47
2022-10-14T04:34:26.632Z,87.51
2022-10-14T04:35:26.621Z,87.38
2022-10-14T04:36:26.621Z,87.34
2022-10-14T04:37:26.603Z,87.31
2022-10-14T04:38:26.603Z,87.29
2022-10-14T04:39:26.587Z,87.20
2022-10-14T04:40:26.560Z,87.29
2022-10-14T04:41:26.548Z,87.32
2022-10-14T04:42:26.551Z,87.42
2022-10-14T04:43:26.518Z,87.39
2022-10-14T04:44:26.504Z,87.37
2022-10-14T04:45:26.497Z,87.23
2022-10-14T04:46:26.477Z,87.33
2022-10-14T04:47:26.488Z,87.31
2022-10-14T04:48:26.458Z,87.15
2022-10-14T04:49:26.443Z,87.11
2022-10-14T04:50:26.426Z,86.95
2022-10-14T04:51:26.465Z,86.91
2022-10-14T04:52:26.433Z,86.95
2022-10-14T04:53:26.392Z,86.98
2022-10-14T04:54:26.379Z,87.11
2022-10-14T04:55:26.375Z,86.96
2022-10-14T04:56:26.364Z,87.09
2022-10-14T04:57:26.402Z,86.97
2022-10-14T04:58:26.340Z,87.04
2022-10-14T04:59:26.333Z,86.76
2022-10-14T05:00:26.298Z,86.97
2022-10-14T05:01:29.145Z,87.01
2022-10-14T05:02:26.292Z,86.96
2022-10-14T05:03:26.276Z,86.94
2022-10-14T05:04:26.251Z,87.09
2022-10-14T05:05:26.276Z,87.12
2022-10-14T05:06:26.215Z,86.84
2022-10-14T05:07:26.227Z,86.58
2022-10-14T05:08:26.194Z,86.60
2022-10-14T05:09:26.183Z,86.75
2022-10-14T05:10:26.258Z,86.90
2022-10-14T05:11:26.144Z,86.93
2022-10-14T05:12:26.140Z,86.88
2022-10-14T05:13:26.145Z,86.92
2022-10-14T05:14:26.138Z,86.92
2022-10-14T05:15:26.097Z,86.95
2022-10-14T05:16:26.136Z,86.94
2022-10-14T05:17:26.070Z,87.00
2022-10-14T05:18:26.069Z,86.95
2022-10-14T05:19:26.045Z,86.92
2022-10-14T05:20:26.028Z,86.99
2022-10-14T05:21:26.014Z,87.10
2022-10-14T05:22:26.025Z,87.00
2022-10-14T05:23:25.996Z,86.92
2022-10-14T05:24:25.974Z,86.76
2022-10-14T05:25:25.959Z,86.81
2022-10-14T05:26:25.950Z,86.71
2022-10-14T05:27:25.932Z,86.70
2022-10-14T05:28:25.996Z,86.85
2022-10-14T05:29:25.910Z,86.99
2022-10-14T05:30:28.623Z,87.03
2022-10-14T05:31:25.914Z,87.06
2022-10-14T05:32:25.877Z,86.60
2022-10-14T05:33:25.854Z,86.57
2022-10-14T05:34:25.923Z,86.65
2022-10-14T05:35:46.702Z,86.77
2022-10-14T05:36:25.817Z,86.98
2022-10-14T05:37:25.795Z,87.03
2022-10-14T05:38:25.838Z,87.07
2022-10-14T05:39:25.822Z,86.90
2022-10-14T05:40:25.766Z,86.81
2022-10-14T05:41:25.753Z,86.76
2022-10-14T05:42:25.744Z,86.84
2022-10-14T05:43:31.745Z,87.06
2022-10-14T05:44:25.714Z,87.16
2022-10-14T05:45:25.706Z,87.01
2022-10-14T05:46:25.684Z,86.97
2022-10-14T05:47:25.814Z,86.84
2022-10-14T05:48:25.679Z,86.98
2022-10-14T05:49:25.692Z,86.90
2022-10-14T05:50:25.664Z,86.92
2022-10-14T05:51:25.637Z,86.84
2022-10-14T05:52:25.642Z,86.77
2022-10-14T05:53:25.617Z,86.86
2022-10-14T05:54:25.602Z,86.84
2022-10-14T05:55:25.563Z,86.94
2022-10-14T05:56:25.565Z,87.04
2022-10-14T05:57:25.535Z,86.77
2022-10-14T05:58:25.575Z,86.39
2022-10-14T05:59:25.535Z,86.41
2022-10-14T06:00:26.022Z,86.35
2022-10-14T06:01:25.584Z,86.39
2022-10-14T06:02:25.500Z,86.52
2022-10-14T06:03:25.525Z,86.69
2022-10-14T06:04:25.470Z,86.42
2022-10-14T06:05:25.444Z,86.46
2022-10-14T06:06:28.991Z,86.53
2022-10-14T06:07:25.426Z,86.83
2022-10-14T06:08:25.436Z,86.67
2022-10-14T06:09:25.406Z,86.95
2022-10-14T06:10:25.397Z,87.03
2022-10-14T06:11:25.387Z,86.71
2022-10-14T06:12:25.359Z,86.46
2022-10-14T06:13:25.332Z,86.36
2022-10-14T06:14:25.344Z,86.19
2022-10-14T06:15:25.340Z,86.26
2022-10-14T06:16:25.297Z,86.41
2022-10-14T06:17:25.279Z,86.33
2022-10-14T06:18:25.278Z,86.30
2022-10-14T06:19:25.289Z,86.22
2022-10-14T06:20:25.258Z,86.22
2022-10-14T06:21:25.265Z,86.41
2022-10-14T06:22:25.237Z,86.46
2022-10-14T06:23:25.226Z,86.36
2022-10-14T06:24:25.193Z,86.33
2022-10-14T06:25:25.184Z,86.30
2022-10-14T06:26:25.174Z,86.27
2022-10-14T06:27:25.185Z,86.27
2022-10-14T06:28:25.323Z,86.40
2022-10-14T06:29:25.126Z,86.47
2022-10-14T06:30:25.213Z,86.56
2022-10-14T06:31:29.848Z,86.48
2022-10-14T06:32:25.261Z,86.42
2022-10-14T06:33:25.102Z,86.41
2022-10-14T06:34:25.099Z,86.56
2022-10-14T06:35:25.052Z,86.48
2022-10-14T06:36:25.051Z,86.68
2022-10-14T06:37:25.083Z,86.66
2022-10-14T06:38:25.022Z,86.59
2022-10-14T06:39:24.997Z,86.54
2022-10-14T06:40:25.047Z,86.29
2022-10-14T06:41:25.024Z,86.30
2022-10-14T06:42:25.269Z,86.17
2022-10-14T06:43:25.010Z,86.31
2022-10-14T06:44:24.931Z,86.37
2022-10-14T06:45:24.944Z,86.29
2022-10-14T06:46:24.906Z,86.10
2022-10-14T06:47:24.896Z,85.88
2022-10-14T06:48:24.914Z,85.93
2022-10-14T06:49:24.944Z,86.00
2022-10-14T06:50:24.920Z,85.49
2022-10-14T06:51:24.862Z,85.32
2022-10-14T06:52:24.999Z,85.52
2022-10-14T06:53:24.823Z,85.29
2022-10-14T06:54:24.801Z,85.60
2022-10-14T06:55:24.842Z,85.31
2022-10-14T06:56:24.803Z,85.23
2022-10-14T06:57:24.769Z,85.38
2022-10-14T06:58:24.765Z,85.50
2022-10-14T06:59:24.743Z,85.66
2022-10-14T07:00:24.781Z,85.43
2022-10-14T07:01:24.810Z,85.49
2022-10-14T07:02:25.231Z,85.66
2022-10-14T07:03:24.690Z,85.21
2022-10-14T07:04:24.671Z,85.36
2022-10-14T07:05:24.679Z,85.58
2022-10-14T07:06:24.675Z,85.68
2022-10-14T07:07:24.634Z,85.61
2022-10-14T07:08:24.636Z,85.52
2022-10-14T07:09:24.666Z,85.56
2022-10-14T07:10:24.641Z,85.56
2022-10-14T07:11:24.593Z,85.39
2022-10-14T07:12:24.881Z,85.54
2022-10-14T07:13:24.558Z,85.46
2022-10-14T07:14:24.552Z,85.37
2022-10-14T07:15:24.537Z,85.52
2022-10-14T07:16:24.526Z,85.25
2022-10-14T07:17:24.899Z,84.94
2022-10-14T07:18:24.518Z,84.73
2022-10-14T07:19:24.482Z,84.93
2022-10-14T07:20:24.463Z,84.95
2022-10-14T07:21:24.515Z,84.75
2022-10-14T07:22:24.813Z,84.88
2022-10-14T07:23:24.431Z,84.79
2022-10-14T07:24:24.416Z,85.06
2022-10-14T07:25:24.405Z,84.45
2022-10-14T07:26:24.382Z,84.41
2022-10-14T07:27:24.661Z,84.47
2022-10-14T07:28:24.427Z,84.67
2022-10-14T07:29:24.362Z,85.14
2022-10-14T07:30:24.329Z,84.62
2022-10-14T07:31:24.335Z,84.23
2022-10-14T07:32:24.313Z,84.33
2022-10-14T07:33:24.357Z,84.33
2022-10-14T07:34:24.298Z,83.99
2022-10-14T07:35:24.269Z,83.98
2022-10-14T07:36:24.254Z,83.94
2022-10-14T07:37:24.640Z,83.89
2022-10-14T07:38:24.235Z,83.83
2022-10-14T07:39:24.217Z,83.87
2022-10-14T07:40:24.201Z,83.83
2022-10-14T07:41:24.197Z,82.91
2022-10-14T07:42:24.189Z,82.80
2022-10-14T07:43:24.171Z,83.12
2022-10-14T07:44:27.249Z,82.22
2022-10-14T07:45:24.142Z,81.88
2022-10-14T07:46:24.168Z,81.72
2022-10-14T07:47:24.320Z,81.35
2022-10-14T07:48:32.647Z,81.82
2022-10-14T07:49:24.112Z,81.83
2022-10-14T07:50:24.070Z,81.84
2022-10-14T07:51:24.073Z,81.89
2022-10-14T07:52:24.046Z,82.06
2022-10-14T07:53:24.043Z,82.05
2022-10-14T07:54:24.016Z,82.10
2022-10-14T07:55:24.033Z,82.12
2022-10-14T07:56:24.013Z,81.48
2022-10-14T07:57:24.638Z,81.09
2022-10-14T07:58:23.968Z,80.41
2022-10-14T07:59:24.007Z,80.57
2022-10-14T08:00:23.937Z,80.23
2022-10-14T08:01:23.942Z,79.75
2022-10-14T08:02:23.915Z,80.15
2022-10-14T08:03:23.933Z,80.28
2022-10-14T08:04:23.887Z,80.83
2022-10-14T08:05:37.593Z,80.00
2022-10-14T08:06:23.858Z,79.96
2022-10-14T08:07:24.219Z,79.86
2022-10-14T08:08:23.867Z,80.04
2022-10-14T08:09:23.874Z,79.75
2022-10-14T08:10:23.799Z,79.10
2022-10-14T08:11:23.805Z,78.84
2022-10-14T08:12:24.208Z,78.16
2022-10-14T08:13:23.764Z,78.50
2022-10-14T08:14:23.748Z,78.92
2022-10-14T08:15:23.782Z,79.06
2022-10-14T08:16:23.724Z,79.09
2022-10-14T08:17:23.722Z,78.95
2022-10-14T08:18:23.710Z,78.97
2022-10-14T08:19:23.687Z,78.89
2022-10-14T08:20:23.676Z,77.91
2022-10-14T08:21:23.655Z,77.13
2022-10-14T08:22:24.036Z,77.50
2022-10-14T08:23:23.623Z,77.23
2022-10-14T08:24:23.653Z,77.28
2022-10-14T08:25:23.598Z,77.33
2022-10-14T08:26:23.647Z,77.81
2022-10-14T08:27:23.568Z,78.12
2022-10-14T08:28:23.589Z,78.00
2022-10-14T08:29:23.557Z,78.01
2022-10-14T08:30:23.547Z,77.79
2022-10-14T08:31:23.544Z,78.00
2022-10-14T08:32:24.157Z,77.88
2022-10-14T08:33:23.501Z,77.60
2022-10-14T08:34:23.500Z,77.68
2022-10-14T08:35:23.477Z,77.69
2022-10-14T08:36:23.443Z,77.84
2022-10-14T08:37:23.432Z,77.69
2022-10-14T08:38:23.429Z,77.01
2022-10-14T08:39:23.418Z,76.30
2022-10-14T08:40:23.395Z,76.46
2022-10-14T08:41:23.379Z,76.96
2022-10-14T08:42:23.832Z,76.16
2022-10-14T08:43:23.352Z,76.31
2022-10-14T08:44:23.358Z,76.36
2022-10-14T08:45:23.329Z,75.54
2022-10-14T08:46:23.311Z,75.47
2022-10-14T08:47:23.306Z,75.46
2022-10-14T08:48:23.276Z,74.73
2022-10-14T08:49:23.285Z,74.36
2022-10-14T08:50:23.255Z,71.46
2022-10-14T08:51:23.238Z,71.37
2022-10-14T08:52:23.640Z,71.98
2022-10-14T08:53:23.214Z,72.57
2022-10-14T08:54:23.231Z,72.24
2022-10-14T08:55:23.219Z,72.50
2022-10-14T08:56:23.175Z,73.12
2022-10-14T08:57:23.160Z,71.76
2022-10-14T08:58:23.254Z,71.52
2022-10-14T08:59:23.152Z,72.13
2022-10-14T09:00:23.135Z,72.42
2022-10-14T09:01:23.101Z,71.92
2022-10-14T09:02:23.432Z,71.25
2022-10-14T09:03:23.097Z,71.80
2022-10-14T09:04:23.099Z,72.61
2022-10-14T09:05:23.080Z,70.90
2022-10-14T09:06:23.031Z,70.28
2022-10-14T09:07:23.034Z,70.68
2022-10-14T09:08:23.004Z,69.65
2022-10-14T09:09:22.999Z,69.11
2022-10-14T09:10:23.024Z,69.39
2022-10-14T09:11:22.968Z,69.47
2022-10-14T09:12:23.208Z,68.13
2022-10-14T09:13:22.943Z,69.35
2022-10-14T09:14:29.448Z,69.91
2022-10-14T09:15:22.935Z,69.64
2022-10-14T09:16:22.909Z,69.27
2022-10-14T09:17:22.906Z,69.23
2022-10-14T09:18:22.884Z,66.69
2022-10-14T09:19:22.865Z,68.33
2022-10-14T09:20:22.855Z,67.87
2022-10-14T09:21:34.130Z,67.45
2022-10-14T09:22:23.112Z,66.73
2022-10-14T09:23:22.829Z,67.29
2022-10-14T09:24:22.797Z,66.67
2022-10-14T09:25:22.801Z,65.61
2022-10-14T09:26:22.806Z,67.18
2022-10-14T09:27:23.048Z,65.74
2022-10-14T09:28:22.804Z,65.13
2022-10-14T09:29:22.736Z,65.05
2022-10-14T09:30:22.743Z,66.95
2022-10-14T09:31:22.844Z,63.63
2022-10-14T09:32:23.018Z,64.59
2022-10-14T09:33:22.683Z,62.91
2022-10-14T09:34:22.687Z,64.23
2022-10-14T09:35:22.675Z,63.97
2022-10-14T09:36:22.664Z,64.36
2022-10-14T09:37:22.979Z,63.98
2022-10-14T09:38:22.613Z,60.61
2022-10-14T09:39:22.604Z,60.43
2022-10-14T09:40:22.583Z,60.83
2022-10-14T09:41:22.628Z,60.04
2022-10-14T09:42:22.584Z,60.91
2022-10-14T09:43:22.549Z,61.45
2022-10-14T09:44:22.570Z,62.11
2022-10-14T09:45:22.546Z,62.09
2022-10-14T09:46:22.506Z,62.26
2022-10-14T09:47:22.718Z,59.58
2022-10-14T09:48:22.477Z,59.97
2022-10-14T09:49:22.477Z,58.65
2022-10-14T09:50:22.457Z,59.53
2022-10-14T09:51:22.439Z,60.33
2022-10-14T09:52:22.459Z,60.61
2022-10-14T09:53:22.438Z,60.93
2022-10-14T09:54:22.434Z,60.22
2022-10-14T09:55:22.413Z,58.45
2022-10-14T09:56:22.381Z,58.57
2022-10-14T09:57:22.733Z,56.66
2022-10-14T09:58:22.378Z,58.07
2022-10-14T09:59:22.349Z,59.87
2022-10-14T10:00:22.324Z,60.52
2022-10-14T10:01:22.316Z,61.57
2022-10-14T10:02:22.306Z,61.63
2022-10-14T10:03:22.297Z,61.94
2022-10-14T10:04:22.288Z,61.12
2022-10-14T10:05:22.284Z,61.03
2022-10-14T10:06:22.247Z,60.05
2022-10-14T10:07:22.672Z,60.96
2022-10-14T10:08:22.226Z,60.88
2022-10-14T10:09:22.241Z,61.19
2022-10-14T10:10:22.220Z,61.34
2022-10-14T10:11:22.203Z,60.21
2022-10-14T10:12:22.171Z,60.65
2022-10-14T10:13:22.310Z,59.66
2022-10-14T10:14:22.172Z,59.45
2022-10-14T10:15:22.135Z,60.13
2022-10-14T10:16:22.136Z,59.11
2022-10-14T10:17:22.369Z,59.63
2022-10-14T10:18:22.117Z,59.20
2022-10-14T10:19:22.084Z,58.98
2022-10-14T10:20:22.097Z,57.14
2022-10-14T10:21:22.069Z,57.55
2022-10-14T10:22:22.085Z,57.99
2022-10-14T10:23:22.054Z,57.07
2022-10-14T10:24:25.896Z,56.40
2022-10-14T10:25:22.010Z,56.92
2022-10-14T10:26:22.000Z,57.57
2022-10-14T10:27:22.342Z,57.45
2022-10-14T10:28:22.007Z,57.42
2022-10-14T10:29:21.964Z,57.58
2022-10-14T10:30:21.929Z,57.75
2022-10-14T10:31:22.114Z,58.82
2022-10-14T10:32:22.160Z,58.23
2022-10-14T10:33:21.892Z,58.64
2022-10-14T10:34:21.881Z,59.07
2022-10-14T10:35:21.865Z,59.63
2022-10-14T10:36:21.853Z,60.39
2022-10-14T10:37:22.079Z,60.53
2022-10-14T10:38:21.842Z,60.91
2022-10-14T10:39:21.820Z,59.87
2022-10-14T10:40:21.802Z,59.85
2022-10-14T10:41:21.802Z,59.83
2022-10-14T10:42:22.042Z,59.78
2022-10-14T10:43:21.783Z,59.54
2022-10-14T10:44:21.777Z,59.33
2022-10-14T10:45:21.826Z,60.25
2022-10-14T10:46:21.758Z,60.34
2022-10-14T10:47:21.774Z,59.03
2022-10-14T10:48:21.727Z,58.24
2022-10-14T10:49:21.732Z,59.27
2022-10-14T10:50:21.702Z,59.23
2022-10-14T10:51:21.712Z,59.84
2022-10-14T10:52:21.875Z,59.62
2022-10-14T10:53:21.690Z,60.76
2022-10-14T10:54:21.650Z,59.90
2022-10-14T10:55:21.667Z,60.04
2022-10-14T10:56:21.643Z,60.29
2022-10-14T10:57:21.871Z,59.79
2022-10-14T10:58:21.635Z,59.29
2022-10-14T10:59:21.598Z,59.34
2022-10-14T11:00:21.646Z,58.41
2022-10-14T11:01:21.591Z,58.64
2022-10-14T11:02:21.912Z,59.33
2022-10-14T11:03:21.545Z,60.11
2022-10-14T11:04:21.547Z,58.98
2022-10-14T11:05:21.516Z,59.07
2022-10-14T11:06:21.517Z,59.42
2022-10-14T11:07:26.947Z,59.59
2022-10-14T11:08:21.575Z,59.01
2022-10-14T11:09:21.457Z,58.83
2022-10-14T11:10:21.461Z,58.47
2022-10-14T11:11:21.424Z,58.62
2022-10-14T11:12:21.776Z,58.37
2022-10-14T11:13:21.399Z,58.40
2022-10-14T11:14:21.412Z,59.30
2022-10-14T11:15:21.373Z,60.12
2022-10-14T11:16:21.382Z,59.18
2022-10-14T11:17:21.783Z,59.89
2022-10-14T11:18:21.376Z,61.72
2022-10-14T11:19:21.346Z,61.67
2022-10-14T11:20:21.335Z,61.91
2022-10-14T11:21:21.292Z,61.89
2022-10-14T11:22:21.540Z,61.69
2022-10-14T11:23:21.275Z,61.41
2022-10-14T11:24:21.293Z,62.14
2022-10-14T11:25:21.260Z,60.65
2022-10-14T11:26:21.305Z,60.21
2022-10-14T11:27:23.995Z,60.78
2022-10-14T11:28:21.241Z,61.57
2022-10-14T11:29:21.199Z,61.43
2022-10-14T11:30:21.169Z,61.49
2022-10-14T11:31:21.177Z,61.54
2022-10-14T11:32:21.145Z,60.45
2022-10-14T11:33:21.127Z,60.66
2022-10-14T11:34:21.123Z,61.26
2022-10-14T11:35:21.108Z,60.54
2022-10-14T11:36:21.088Z,59.86
2022-10-14T11:37:21.382Z,59.68
2022-10-14T11:38:21.049Z,59.43
2022-10-14T11:39:21.058Z,59.00
2022-10-14T11:40:21.037Z,59.06
2022-10-14T11:41:21.011Z,58.47
2022-10-14T11:42:21.308Z,58.91
2022-10-14T11:43:20.983Z,59.66
2022-10-14T11:44:20.969Z,59.73
2022-10-14T11:45:21.506Z,59.04
2022-10-14T11:46:20.962Z,57.86
2022-10-14T11:47:21.299Z,58.16
2022-10-14T11:48:20.919Z,59.07
2022-10-14T11:49:20.904Z,59.40
2022-10-14T11:50:20.918Z,59.72
2022-10-14T11:51:20.882Z,59.51
2022-10-14T11:52:20.875Z,59.60
2022-10-14T11:53:20.850Z,58.54
2022-10-14T11:54:20.842Z,59.75
2022-10-14T11:55:20.833Z,59.79
2022-10-14T11:56:20.832Z,58.96
2022-10-14T11:57:21.126Z,58.73
2022-10-14T11:58:20.798Z,58.59
2022-10-14T11:59:20.778Z,57.34
2022-10-14T12:00:20.832Z,57.60
2022-10-14T12:01:20.750Z,58.65
2022-10-14T12:02:21.211Z,59.16
2022-10-14T12:03:20.719Z,58.06
2022-10-14T12:04:20.740Z,58.15
2022-10-14T12:05:20.710Z,58.49
2022-10-14T12:06:20.724Z,58.79
2022-10-14T12:07:20.685Z,59.56
2022-10-14T12:08:20.659Z,59.00
2022-10-14T12:09:20.664Z,58.92
2022-10-14T12:10:20.637Z,59.85
2022-10-14T12:11:20.641Z,60.37
2022-10-14T12:12:21.020Z,60.70
2022-10-14T12:13:20.601Z,60.35
2022-10-14T12:14:20.578Z,60.33
2022-10-14T12:15:20.691Z,60.29
2022-10-14T12:16:20.560Z,60.26
2022-10-14T12:17:21.075Z,60.53
2022-10-14T12:18:20.536Z,60.36
2022-10-14T12:19:20.534Z,59.97
2022-10-14T12:20:20.505Z,59.82
2022-10-14T12:21:20.503Z,60.22
2022-10-14T12:22:20.787Z,60.59
2022-10-14T12:23:20.502Z,59.83
2022-10-14T12:24:20.455Z,59.92
2022-10-14T12:25:20.464Z,61.00
2022-10-14T12:26:20.443Z,60.41
2022-10-14T12:27:20.409Z,59.38
2022-10-14T12:28:20.425Z,59.84
2022-10-14T12:29:20.396Z,59.58
2022-10-14T12:30:20.379Z,58.58
2022-10-14T12:31:20.384Z,58.42
2022-10-14T12:32:20.793Z,59.09
2022-10-14T12:33:23.064Z,60.09
2022-10-14T12:34:20.335Z,59.40
2022-10-14T12:35:20.314Z,59.89
2022-10-14T12:36:20.329Z,59.76
2022-10-14T12:37:20.750Z,59.76
2022-10-14T12:38:20.272Z,59.50
2022-10-14T12:39:20.289Z,58.90
2022-10-14T12:40:20.250Z,59.28
2022-10-14T12:41:20.226Z,59.25
2022-10-14T12:42:20.540Z,59.95
2022-10-14T12:43:20.214Z,59.78
2022-10-14T12:44:20.189Z,59.58
2022-10-14T12:45:20.173Z,60.26
2022-10-14T12:46:20.167Z,59.40
2022-10-14T12:47:20.635Z,59.47
2022-10-14T12:48:20.139Z,58.88
2022-10-14T12:49:20.122Z,59.16
2022-10-14T12:50:20.111Z,59.39
2022-10-14T12:51:20.107Z,58.83
2022-10-14T12:52:20.095Z,58.81